createdAt,value
2023-01-19T00:00:50.803Z,-0.13
2023-01-19T00:03:17.932Z,0.07
2023-01-19T00:05:45.165Z,0.14
2023-01-19T00:08:14.998Z,0.27
2023-01-19T00:10:43.691Z,-0.02
2023-01-19T00:13:10.435Z,0.32
2023-01-19T00:15:37.490Z,0.20
2023-01-19T00:18:04.066Z,0.36
2023-01-19T00:20:35.387Z,0.35
2023-01-19T00:23:03.348Z,0.37
2023-01-19T00:25:30.339Z,0.15
2023-01-19T00:27:57.263Z,0.23
2023-01-19T00:30:23.713Z,0.30
2023-01-19T00:32:50.273Z,0.39
2023-01-19T00:35:16.976Z,0.27
2023-01-19T00:37:46.211Z,0.31
2023-01-19T00:40:14.096Z,0.25
2023-01-19T00:42:41.079Z,0.38
2023-01-19T00:45:09.909Z,0.20
2023-01-19T00:47:36.726Z,0.26
2023-01-19T00:50:03.651Z,0.38
2023-01-19T00:52:30.431Z,0.11
2023-01-19T00:54:56.951Z,0.32
2023-01-19T00:57:23.710Z,0.43
2023-01-19T00:59:50.344Z,0.19
2023-01-19T01:02:17.262Z,0.30
2023-01-19T01:04:43.926Z,0.30
2023-01-19T01:07:10.543Z,0.53
2023-01-19T01:09:37.339Z,0.65
2023-01-19T01:12:04.081Z,0.46
2023-01-19T01:14:32.760Z,0.25
2023-01-19T01:17:00.541Z,0.15
2023-01-19T01:19:27.178Z,-0.06
2023-01-19T01:21:53.710Z,0.18
2023-01-19T01:24:20.957Z,0.34
2023-01-19T01:26:47.605Z,0.29
2023-01-19T01:29:14.167Z,0.43
2023-01-19T01:31:41.030Z,0.32
2023-01-19T01:34:08.220Z,0.31
2023-01-19T01:36:35.463Z,0.27
2023-01-19T01:39:02.320Z,0.46
2023-01-19T01:41:29.064Z,0.44
2023-01-19T01:43:58.843Z,0.47
2023-01-19T01:46:28.728Z,0.48
2023-01-19T01:49:06.955Z,0.30
2023-01-19T01:51:42.217Z,0.22
2023-01-19T01:54:12.848Z,0.22
2023-01-19T01:56:42.924Z,0.25
2023-01-19T01:59:17.989Z,0.35
2023-01-19T02:02:03.351Z,0.26
2023-01-19T02:04:31.203Z,0.36
2023-01-19T02:07:16.415Z,0.12
2023-01-19T02:10:01.640Z,0.35
2023-01-19T02:12:47.300Z,0.23
2023-01-19T02:15:20.143Z,0.24
2023-01-19T02:17:47.450Z,0.46
2023-01-19T02:20:14.601Z,0.27
2023-01-19T02:22:50.078Z,0.29
2023-01-19T02:25:19.042Z,0.25
2023-01-19T02:27:45.956Z,0.29
2023-01-19T02:30:13.664Z,0.25
2023-01-19T02:32:40.299Z,0.23
2023-01-19T02:35:07.222Z,0.30
2023-01-19T02:37:37.576Z,0.51
2023-01-19T02:40:06.981Z,0.52
2023-01-19T02:42:39.674Z,0.57
2023-01-19T02:45:09.473Z,0.49
2023-01-19T02:47:43.042Z,0.68
2023-01-19T02:50:28.739Z,0.51
2023-01-19T02:53:17.588Z,0.43
2023-01-19T02:55:53.764Z,0.33
2023-01-19T02:58:33.533Z,0.34
2023-01-19T03:01:32.595Z,0.40
2023-01-19T03:04:25.142Z,0.31
2023-01-19T03:07:00.711Z,0.37
2023-01-19T03:09:44.532Z,0.26
2023-01-19T03:12:26.916Z,0.52
2023-01-19T03:15:00.861Z,0.97
2023-01-19T03:17:31.024Z,0.48
2023-01-19T03:19:57.934Z,0.69
2023-01-19T03:22:29.066Z,0.48
2023-01-19T03:25:01.124Z,0.79
2023-01-19T03:27:31.223Z,0.98
2023-01-19T03:30:05.877Z,1.12
2023-01-19T03:32:39.828Z,0.99
2023-01-19T03:35:13.378Z,0.88
2023-01-19T03:37:43.509Z,0.76
2023-01-19T03:40:11.447Z,0.61
2023-01-19T03:42:39.662Z,0.80
2023-01-19T03:45:07.361Z,0.56
2023-01-19T03:47:35.283Z,0.77
2023-01-19T03:50:05.407Z,0.68
2023-01-19T03:52:33.779Z,0.64
2023-01-19T03:55:05.622Z,0.44
2023-01-19T03:57:32.377Z,0.36
2023-01-19T03:59:58.948Z,0.55
2023-01-19T04:02:25.442Z,0.49
2023-01-19T04:04:51.940Z,0.53
2023-01-19T04:07:18.856Z,0.49
2023-01-19T04:09:45.363Z,0.91
2023-01-19T04:12:12.265Z,0.81
2023-01-19T04:14:38.827Z,0.80
2023-01-19T04:17:05.421Z,0.53
2023-01-19T04:19:31.967Z,0.85
2023-01-19T04:21:58.573Z,0.92
2023-01-19T04:24:25.177Z,0.93
2023-01-19T04:26:53.476Z,0.66
2023-01-19T04:29:20.022Z,0.96
2023-01-19T04:31:46.540Z,0.99
2023-01-19T04:34:13.092Z,0.52
2023-01-19T04:36:39.646Z,0.63
2023-01-19T04:39:08.287Z,0.56
2023-01-19T04:41:34.905Z,0.48
2023-01-19T04:44:01.453Z,0.53
2023-01-19T04:46:28.236Z,0.45
2023-01-19T04:48:54.738Z,0.60
2023-01-19T04:51:21.234Z,0.56
2023-01-19T04:53:47.814Z,0.77
2023-01-19T04:56:14.370Z,0.64
2023-01-19T04:58:40.955Z,0.66
2023-01-19T05:01:09.639Z,0.68
2023-01-19T05:03:36.491Z,0.82
2023-01-19T05:06:03.326Z,0.94
2023-01-19T05:08:30.029Z,1.01
2023-01-19T05:10:57.540Z,0.74
2023-01-19T05:13:24.163Z,0.95
2023-01-19T05:15:50.736Z,1.02
2023-01-19T05:18:17.979Z,0.92
2023-01-19T05:20:44.564Z,1.02
2023-01-19T05:23:11.197Z,1.20
2023-01-19T05:25:37.830Z,1.01
2023-01-19T05:28:04.625Z,0.93
2023-01-19T05:30:31.329Z,0.75
2023-01-19T05:32:58.002Z,1.10
2023-01-19T05:35:35.397Z,0.99
2023-01-19T05:38:02.721Z,1.05
2023-01-19T05:40:29.404Z,1.08
2023-01-19T05:43:00.643Z,0.93
2023-01-19T05:45:28.292Z,0.70
2023-01-19T05:47:55.165Z,0.94
2023-01-19T05:50:21.736Z,1.03
2023-01-19T05:52:48.514Z,0.74
2023-01-19T05:55:32.267Z,0.87
2023-01-19T05:57:58.864Z,0.90
2023-01-19T06:00:27.493Z,1.18
2023-01-19T06:02:54.105Z,1.81
2023-01-19T06:05:20.747Z,1.29
2023-01-19T06:07:47.437Z,1.70
2023-01-19T06:10:13.974Z,1.50
2023-01-19T06:12:43.633Z,1.57
2023-01-19T06:15:10.599Z,1.82
2023-01-19T06:17:37.156Z,1.73
2023-01-19T06:20:05.347Z,1.73
2023-01-19T06:22:31.921Z,1.76
2023-01-19T06:24:58.445Z,1.64
2023-01-19T06:27:24.964Z,1.75
2023-01-19T06:29:51.539Z,1.75
2023-01-19T06:32:18.179Z,1.71
2023-01-19T06:34:44.877Z,1.47
2023-01-19T06:37:11.673Z,1.73
2023-01-19T06:39:40.956Z,1.60
2023-01-19T06:42:08.257Z,1.54
2023-01-19T06:44:34.852Z,1.72
2023-01-19T06:47:15.655Z,1.76
2023-01-19T06:49:42.848Z,1.79
2023-01-19T06:52:11.468Z,1.59
2023-01-19T06:54:38.232Z,1.53
2023-01-19T06:57:04.776Z,1.59
2023-01-19T06:59:31.738Z,1.48
2023-01-19T07:02:01.018Z,1.71
2023-01-19T07:04:47.403Z,1.36
2023-01-19T07:07:14.045Z,1.34
2023-01-19T07:09:40.594Z,1.31
2023-01-19T07:12:07.855Z,1.33
2023-01-19T07:14:35.550Z,1.40
2023-01-19T07:17:02.966Z,1.57
2023-01-19T07:19:29.707Z,1.79
2023-01-19T07:21:56.254Z,1.82
2023-01-19T07:24:23.717Z,1.74
2023-01-19T07:26:50.271Z,1.64
2023-01-19T07:29:16.867Z,1.67
2023-01-19T07:31:43.452Z,1.62
2023-01-19T07:34:12.387Z,1.62
2023-01-19T07:36:39.114Z,1.45
2023-01-19T07:39:08.509Z,1.60
2023-01-19T07:41:35.610Z,1.48
2023-01-19T07:44:02.212Z,1.68
2023-01-19T07:46:28.744Z,1.63
2023-01-19T07:48:55.595Z,2.33
2023-01-19T07:51:22.188Z,2.36
2023-01-19T07:53:52.153Z,2.26
2023-01-19T07:56:18.726Z,2.52
2023-01-19T07:58:45.305Z,1.99
2023-01-19T08:01:13.306Z,2.13
2023-01-19T08:03:39.948Z,2.40
2023-01-19T08:06:07.255Z,2.35
2023-01-19T08:08:34.165Z,2.16
2023-01-19T08:11:00.641Z,2.42
2023-01-19T08:13:27.278Z,2.40
2023-01-19T08:15:54.235Z,3.85
2023-01-19T08:18:21.106Z,4.04
2023-01-19T08:20:47.727Z,4.82
2023-01-19T08:23:14.340Z,4.78
2023-01-19T08:25:44.360Z,4.67
2023-01-19T08:28:13.995Z,4.94
2023-01-19T08:30:43.587Z,4.38
2023-01-19T08:33:11.764Z,5.43
2023-01-19T08:35:40.879Z,6.16
2023-01-19T08:38:08.720Z,6.12
2023-01-19T08:40:38.416Z,5.73
2023-01-19T08:43:07.769Z,5.43
2023-01-19T08:45:41.375Z,7.49
2023-01-19T08:48:08.049Z,6.35
2023-01-19T08:50:34.937Z,5.82
2023-01-19T08:53:03.667Z,6.25
2023-01-19T08:55:30.545Z,6.70
2023-01-19T08:57:59.999Z,6.51
2023-01-19T09:00:27.209Z,7.56
2023-01-19T09:02:54.914Z,8.18
2023-01-19T09:05:21.802Z,8.41
2023-01-19T09:07:48.523Z,7.56
2023-01-19T09:10:16.179Z,9.04
2023-01-19T09:12:44.842Z,9.94
2023-01-19T09:15:13.782Z,8.02
2023-01-19T09:17:43.710Z,8.74
2023-01-19T09:20:10.873Z,8.64
2023-01-19T09:22:38.489Z,8.37
2023-01-19T09:25:08.353Z,8.20
2023-01-19T09:27:35.715Z,8.85
2023-01-19T09:30:03.437Z,10.73
2023-01-19T09:32:30.066Z,10.58
2023-01-19T09:34:56.801Z,10.85
2023-01-19T09:37:23.373Z,10.53
2023-01-19T09:39:49.991Z,9.87
2023-01-19T09:42:44.555Z,8.91
2023-01-19T09:45:18.840Z,9.59
2023-01-19T09:47:48.608Z,10.27
2023-01-19T09:50:26.739Z,8.72
2023-01-19T09:53:03.075Z,11.05
2023-01-19T09:55:30.760Z,10.04
2023-01-19T09:57:57.275Z,8.05
2023-01-19T10:00:25.625Z,9.09
2023-01-19T10:02:58.904Z,11.80
2023-01-19T10:05:38.734Z,11.46
2023-01-19T10:08:20.542Z,10.28
2023-01-19T10:10:52.541Z,9.01
2023-01-19T10:13:28.877Z,7.80
2023-01-19T10:16:07.287Z,6.93
2023-01-19T10:18:51.883Z,6.47
2023-01-19T10:21:26.206Z,6.73
2023-01-19T10:24:00.876Z,6.43
2023-01-19T10:26:36.330Z,6.86
2023-01-19T10:29:10.897Z,6.97
2023-01-19T10:31:44.756Z,5.46
2023-01-19T10:34:20.974Z,5.23
2023-01-19T10:36:55.696Z,4.88
2023-01-19T10:39:22.569Z,5.09
2023-01-19T10:41:51.522Z,5.34
2023-01-19T10:44:26.620Z,5.21
2023-01-19T10:46:56.743Z,5.02
2023-01-19T10:49:36.163Z,4.97
2023-01-19T10:52:05.239Z,5.23
2023-01-19T10:54:33.903Z,5.47
2023-01-19T10:57:07.195Z,4.85
2023-01-19T10:59:44.228Z,4.98
2023-01-19T11:02:18.663Z,4.69
2023-01-19T11:04:50.182Z,4.23
2023-01-19T11:07:25.894Z,4.12
2023-01-19T11:10:17.707Z,4.46
2023-01-19T11:12:52.817Z,4.58
2023-01-19T11:15:41.683Z,4.54
2023-01-19T11:18:08.202Z,4.58
2023-01-19T11:20:53.656Z,4.65
2023-01-19T11:23:31.927Z,4.86
2023-01-19T11:26:01.520Z,4.64
2023-01-19T11:28:44.186Z,4.07
2023-01-19T11:31:11.642Z,4.37
2023-01-19T11:33:49.736Z,4.67
2023-01-19T11:36:21.175Z,4.78
2023-01-19T11:38:53.327Z,4.91
2023-01-19T11:41:22.522Z,4.37
2023-01-19T11:43:52.819Z,4.12
2023-01-19T11:46:20.763Z,4.53
2023-01-19T11:49:01.706Z,4.75
2023-01-19T11:51:34.328Z,4.38
2023-01-19T11:54:02.672Z,3.79
2023-01-19T11:56:29.687Z,4.39
2023-01-19T11:58:56.449Z,4.34
2023-01-19T12:01:35.223Z,4.06
2023-01-19T12:04:14.321Z,4.26
2023-01-19T12:06:44.752Z,4.45
2023-01-19T12:09:13.425Z,3.89
2023-01-19T12:11:44.533Z,4.38
2023-01-19T12:14:21.484Z,3.92
2023-01-19T12:16:51.885Z,4.43
2023-01-19T12:19:25.091Z,4.11
2023-01-19T12:21:52.598Z,4.26
2023-01-19T12:24:42.332Z,3.92
2023-01-19T12:27:31.933Z,3.98
2023-01-19T12:29:58.761Z,3.73
2023-01-19T12:32:36.852Z,4.29
2023-01-19T12:35:03.530Z,4.30
2023-01-19T12:37:36.432Z,4.25
2023-01-19T12:40:21.705Z,4.20
2023-01-19T12:42:56.683Z,4.01
2023-01-19T12:45:28.554Z,3.94
2023-01-19T12:47:56.276Z,4.06
2023-01-19T12:50:25.868Z,3.97
2023-01-19T12:53:02.839Z,3.93
2023-01-19T12:55:37.577Z,3.76
2023-01-19T12:58:18.539Z,3.24
2023-01-19T13:00:48.206Z,3.46
2023-01-19T13:03:17.534Z,3.57
2023-01-19T13:05:44.052Z,3.47
2023-01-19T13:08:11.402Z,3.62
2023-01-19T13:11:00.034Z,3.79
2023-01-19T13:13:31.764Z,3.76
2023-01-19T13:16:28.008Z,3.63
2023-01-19T13:18:59.495Z,3.45
2023-01-19T13:21:35.258Z,3.70
2023-01-19T13:24:01.925Z,3.65
2023-01-19T13:26:32.612Z,3.37
2023-01-19T13:29:07.871Z,3.30
2023-01-19T13:31:36.604Z,3.05
2023-01-19T13:34:10.654Z,3.59
2023-01-19T13:36:41.315Z,3.36
2023-01-19T13:39:23.479Z,3.53
2023-01-19T13:41:54.157Z,3.47
2023-01-19T13:44:32.223Z,3.20
2023-01-19T13:46:59.850Z,3.58
2023-01-19T13:49:33.947Z,3.01
2023-01-19T13:52:13.765Z,3.19
2023-01-19T13:54:49.965Z,3.38
2023-01-19T13:57:45.331Z,3.50
2023-01-19T14:00:14.606Z,3.12
2023-01-19T14:02:52.509Z,3.18
2023-01-19T14:05:28.901Z,3.56
2023-01-19T14:08:13.476Z,3.09
2023-01-19T14:10:42.659Z,3.50
2023-01-19T14:13:25.182Z,3.51
2023-01-19T14:15:55.411Z,3.83
2023-01-19T14:18:22.023Z,3.61
2023-01-19T14:21:15.552Z,3.19
2023-01-19T14:23:47.191Z,3.19
2023-01-19T14:26:51.887Z,3.32
2023-01-19T14:29:21.390Z,3.32
2023-01-19T14:31:50.868Z,3.52
2023-01-19T14:34:28.831Z,2.96
2023-01-19T14:36:55.573Z,3.01
2023-01-19T14:39:24.728Z,3.23
2023-01-19T14:41:53.122Z,3.05
2023-01-19T14:44:35.975Z,3.08
2023-01-19T14:51:04.629Z,3.04
2023-01-19T14:53:37.400Z,3.12
2023-01-19T14:56:07.439Z,3.07
2023-01-19T14:58:35.417Z,3.02
2023-01-19T15:01:03.239Z,3.19
2023-01-19T15:03:43.482Z,3.44
2023-01-19T15:06:17.868Z,3.56
2023-01-19T15:08:45.524Z,3.43
2023-01-19T15:11:16.568Z,3.40
2023-01-19T15:13:44.656Z,3.25
2023-01-19T15:16:11.274Z,2.91
2023-01-19T15:18:38.805Z,2.92
2023-01-19T15:21:05.766Z,3.03
2023-01-19T15:23:33.077Z,2.83
2023-01-19T15:26:01.099Z,2.67
2023-01-19T15:28:27.898Z,2.81
2023-01-19T15:30:54.606Z,3.11
2023-01-19T15:33:24.630Z,3.04
2023-01-19T15:35:52.147Z,2.87
2023-01-19T15:38:18.845Z,3.24
2023-01-19T15:40:49.530Z,2.96
2023-01-19T15:43:17.696Z,2.69
2023-01-19T15:45:48.021Z,2.90
2023-01-19T15:48:14.760Z,2.85
2023-01-19T15:50:45.322Z,2.80
2023-01-19T15:53:18.006Z,3.07
2023-01-19T15:55:48.319Z,2.76
2023-01-19T15:58:15.021Z,3.10
2023-01-19T16:00:42.845Z,3.05
2023-01-19T16:03:10.543Z,3.21
2023-01-19T16:05:42.855Z,3.10
2023-01-19T16:08:11.420Z,3.24
2023-01-19T16:10:38.051Z,3.32
2023-01-19T16:13:04.640Z,3.17
2023-01-19T16:15:31.959Z,2.99
2023-01-19T16:17:58.643Z,3.26
2023-01-19T16:20:31.302Z,3.29
2023-01-19T16:23:13.893Z,3.43
2023-01-19T16:25:41.269Z,3.08
2023-01-19T16:28:08.321Z,3.34
2023-01-19T16:30:34.928Z,2.86
2023-01-19T16:33:01.585Z,2.83
2023-01-19T16:35:28.080Z,3.02
2023-01-19T16:37:54.599Z,3.04
2023-01-19T16:40:21.266Z,2.82
2023-01-19T16:42:47.853Z,2.62
2023-01-19T16:45:14.596Z,2.68
2023-01-19T16:47:41.331Z,2.76
2023-01-19T16:50:11.365Z,2.98
2023-01-19T16:52:38.437Z,2.64
2023-01-19T16:55:09.343Z,2.87
2023-01-19T16:57:36.923Z,2.97
2023-01-19T17:00:04.248Z,2.90
2023-01-19T17:02:30.831Z,3.34
2023-01-19T17:05:00.085Z,3.44
2023-01-19T17:07:28.005Z,3.57
2023-01-19T17:09:54.657Z,3.31
2023-01-19T17:12:21.305Z,3.42
2023-01-19T17:14:48.137Z,3.48
2023-01-19T17:17:15.011Z,3.83
2023-01-19T17:19:41.633Z,3.37
2023-01-19T17:22:08.337Z,3.54
2023-01-19T17:24:34.994Z,3.64
2023-01-19T17:27:01.571Z,3.08
2023-01-19T17:29:28.165Z,3.20
2023-01-19T17:31:54.681Z,3.47
2023-01-19T17:34:21.270Z,3.19
2023-01-19T17:36:50.601Z,2.83
2023-01-19T17:39:18.460Z,3.43
2023-01-19T17:41:45.007Z,2.99
2023-01-19T17:44:11.732Z,2.94
2023-01-19T17:46:38.672Z,2.68
2023-01-19T17:49:07.229Z,3.18
2023-01-19T17:51:34.605Z,3.15
2023-01-19T17:54:01.243Z,3.32
2023-01-19T17:56:30.226Z,2.86
2023-01-19T17:58:58.064Z,3.61
2023-01-19T18:01:27.076Z,3.63
2023-01-19T18:03:54.182Z,3.68
2023-01-19T18:06:21.593Z,3.57
2023-01-19T18:08:49.318Z,3.74
2023-01-19T18:11:17.993Z,3.85
2023-01-19T18:13:45.756Z,3.97
2023-01-19T18:16:28.440Z,3.99
2023-01-19T18:18:56.944Z,4.01
2023-01-19T18:21:24.951Z,3.81
2023-01-19T18:23:51.948Z,3.37
2023-01-19T18:26:20.526Z,3.69
2023-01-19T18:28:48.488Z,4.03
2023-01-19T18:31:18.845Z,3.87
2023-01-19T18:33:49.770Z,3.74
2023-01-19T18:36:16.983Z,3.53
2023-01-19T18:38:44.393Z,3.30
2023-01-19T18:41:13.055Z,3.29
2023-01-19T18:43:40.779Z,3.22
2023-01-19T18:46:07.753Z,2.87
2023-01-19T18:48:34.791Z,3.13
2023-01-19T18:51:06.492Z,3.10
2023-01-19T18:53:33.107Z,3.65
2023-01-19T18:56:02.024Z,3.59
2023-01-19T18:58:29.871Z,3.71
2023-01-19T19:00:56.641Z,3.85
2023-01-19T19:03:23.389Z,3.86
2023-01-19T19:05:50.253Z,3.88
2023-01-19T19:08:16.947Z,3.75
2023-01-19T19:10:43.804Z,3.56
2023-01-19T19:13:15.628Z,3.75
2023-01-19T19:15:44.118Z,3.45
2023-01-19T19:18:13.254Z,3.51
2023-01-19T19:20:39.950Z,3.67
2023-01-19T19:23:06.907Z,3.80
2023-01-19T19:25:33.536Z,3.10
2023-01-19T19:28:00.125Z,3.17
2023-01-19T19:30:26.707Z,3.13
2023-01-19T19:32:54.578Z,3.15
2023-01-19T19:35:21.486Z,2.98
2023-01-19T19:37:48.614Z,2.83
2023-01-19T19:40:15.693Z,2.94
2023-01-19T19:42:42.214Z,2.58
2023-01-19T19:45:09.339Z,3.07
2023-01-19T19:47:35.810Z,2.87
2023-01-19T19:50:02.616Z,2.99
2023-01-19T19:52:29.192Z,2.60
2023-01-19T19:54:55.920Z,2.83
2023-01-19T19:57:22.644Z,3.34
2023-01-19T19:59:49.183Z,3.03
2023-01-19T20:02:15.830Z,2.94
2023-01-19T20:04:43.017Z,2.74
2023-01-19T20:07:09.740Z,2.98
2023-01-19T20:09:36.476Z,3.09
2023-01-19T20:12:03.111Z,3.00
2023-01-19T20:14:29.726Z,3.15
2023-01-19T20:16:56.262Z,2.65
2023-01-19T20:19:22.837Z,2.93
2023-01-19T20:21:54.682Z,2.72
2023-01-19T20:24:21.284Z,2.78
2023-01-19T20:26:52.307Z,2.63
2023-01-19T20:29:19.831Z,2.65
2023-01-19T20:31:53.107Z,2.38
2023-01-19T20:34:22.272Z,2.74
2023-01-19T20:36:50.296Z,2.56
2023-01-19T20:39:18.486Z,2.75
2023-01-19T20:41:45.577Z,2.76
2023-01-19T20:44:15.323Z,2.71
2023-01-19T20:46:42.346Z,2.42
2023-01-19T20:49:09.158Z,2.28
2023-01-19T20:51:37.349Z,2.60
2023-01-19T20:54:04.079Z,2.38
2023-01-19T20:56:30.557Z,2.44
2023-01-19T20:58:58.688Z,2.24
2023-01-19T21:01:26.273Z,2.25
2023-01-19T21:03:52.960Z,2.24
2023-01-19T21:06:21.493Z,2.43
2023-01-19T21:08:51.580Z,2.43
2023-01-19T21:11:20.904Z,2.42
2023-01-19T21:13:48.543Z,2.35
2023-01-19T21:16:15.737Z,2.30
2023-01-19T21:18:42.780Z,2.17
2023-01-19T21:21:20.853Z,2.16
2023-01-19T21:23:59.940Z,2.24
2023-01-19T21:26:26.803Z,2.35
2023-01-19T21:28:53.494Z,2.11
2023-01-19T21:31:22.519Z,2.21
2023-01-19T21:33:53.403Z,2.24
2023-01-19T21:36:21.142Z,2.21
2023-01-19T21:38:48.044Z,2.01
2023-01-19T21:41:16.253Z,2.01
2023-01-19T21:43:43.182Z,1.65
2023-01-19T21:46:29.212Z,1.46
2023-01-19T21:48:57.346Z,1.76
2023-01-19T21:51:23.971Z,1.95
2023-01-19T21:53:52.154Z,1.85
2023-01-19T21:56:18.818Z,2.02
2023-01-19T21:58:47.146Z,1.99
2023-01-19T22:01:14.003Z,2.09
2023-01-19T22:03:41.274Z,2.22
2023-01-19T22:06:11.260Z,2.14
2023-01-19T22:08:38.503Z,2.23
2023-01-19T22:11:11.109Z,2.37
2023-01-19T22:13:40.312Z,2.47
2023-01-19T22:16:10.385Z,2.52
2023-01-19T22:18:38.734Z,1.90
2023-01-19T22:21:14.678Z,1.96
2023-01-19T22:23:42.155Z,2.12
2023-01-19T22:26:10.726Z,1.96
2023-01-19T22:28:38.004Z,2.20
2023-01-19T22:31:06.947Z,2.54
2023-01-19T22:33:33.851Z,2.54
2023-01-19T22:36:31.017Z,2.34
2023-01-19T22:38:59.907Z,2.26
2023-01-19T22:41:31.896Z,2.11
2023-01-19T22:44:04.866Z,2.23
2023-01-19T22:46:33.760Z,2.21
2023-01-19T22:49:00.478Z,2.22
2023-01-19T22:51:29.629Z,2.16
2023-01-19T22:53:56.684Z,2.11
2023-01-19T22:56:28.381Z,1.90
2023-01-19T22:58:55.302Z,2.00
2023-01-19T23:01:37.020Z,1.69
2023-01-19T23:04:05.598Z,1.47
2023-01-19T23:06:35.404Z,1.63
2023-01-19T23:09:06.660Z,1.74
2023-01-19T23:11:36.787Z,1.93
2023-01-19T23:14:04.558Z,2.18
2023-01-19T23:16:31.055Z,2.01
2023-01-19T23:18:58.486Z,1.62
2023-01-19T23:21:29.931Z,1.49
2023-01-19T23:24:01.527Z,1.55
2023-01-19T23:26:30.741Z,1.71
2023-01-19T23:28:59.709Z,1.85
2023-01-19T23:31:32.129Z,2.01
2023-01-19T23:34:01.445Z,1.91
2023-01-19T23:36:30.786Z,1.81
2023-01-19T23:38:59.509Z,1.68
2023-01-19T23:41:30.653Z,1.38
2023-01-19T23:43:57.338Z,1.28
2023-01-19T23:46:24.555Z,1.52
2023-01-19T23:48:51.036Z,1.59
2023-01-19T23:51:21.241Z,1.52
2023-01-19T23:53:48.229Z,1.34
2023-01-19T23:56:17.927Z,1.64
2023-01-19T23:58:45.855Z,1.81
